Time;durP1;ratioP1;P1;durP2;ratioP2;P2;SDS_P1;SDS_P2;PMS_P1;PMS_P2;Temp;Humidity;BMP_temperature;BMP_pressure;BME280_temperature;BME280_humidity;BME280_pressure;Samples;Min_cycle;Max_cycle;Signal;HPM_P1;HPM_P2
2021/05/29 00:00:11;;;;;;;25.90;12.75;;;;;;;;;;4925509;29;20066;-53
2021/05/29 00:02:38;;;;;;;32.83;14.85;;;;;;;;;;4921079;29;20047;-57
2021/05/29 00:05:07;;;;;;;23.88;14.70;;;;;;;;;;4923921;29;20397;-54
2021/05/29 00:07:34;;;;;;;31.02;15.15;;;;;;;;;;4923314;29;20044;-56
2021/05/29 00:10:01;;;;;;;28.40;14.93;;;;;;;;;;4924715;29;20056;-53
2021/05/29 00:12:27;;;;;;;26.50;15.95;;;;;;;;;;4920670;29;20835;-54
2021/05/29 00:14:54;;;;;;;27.83;17.08;;;;;;;;;;4907519;29;20110;-54
2021/05/29 00:17:21;;;;;;;28.80;16.20;;;;;;;;;;4923489;29;20039;-55
2021/05/29 00:19:49;;;;;;;35.65;17.17;;;;;;;;;;4923593;29;20055;-51
2021/05/29 00:22:16;;;;;;;26.90;16.92;;;;;;;;;;4926895;29;20182;-54
2021/05/29 00:24:43;;;;;;;31.10;19.13;;;;;;;;;;4925304;29;20040;-54
2021/05/29 00:27:09;;;;;;;39.60;20.70;;;;;;;;;;4923777;29;20050;-53
2021/05/29 00:29:36;;;;;;;36.35;19.08;;;;;;;;;;4911709;29;20054;-54
2021/05/29 00:32:03;;;;;;;41.78;18.55;;;;;;;;;;4925753;29;20532;-53
2021/05/29 00:34:29;;;;;;;28.23;16.70;;;;;;;;;;4919509;29;20063;-54
2021/05/29 00:36:56;;;;;;;33.70;16.95;;;;;;;;;;4924500;29;20484;-52
2021/05/29 00:39:22;;;;;;;38.03;16.30;;;;;;;;;;4922756;29;20552;-54
2021/05/29 00:41:50;;;;;;;35.45;16.15;;;;;;;;;;4924694;29;20044;-52
2021/05/29 00:44:17;;;;;;;;;;;;;;;;;;4929482;29;20130;-56
2021/05/29 00:46:44;;;;;;;32.00;16.45;;;;;;;;;;4922018;29;20257;-52
2021/05/29 00:49:11;;;;;;;41.95;17.27;;;;;;;;;;4924666;29;20055;-55
2021/05/29 00:51:37;;;;;;;38.70;18.63;;;;;;;;;;4930483;29;20062;-55
2021/05/29 00:54:05;;;;;;;37.58;19.73;;;;;;;;;;4929514;29;20051;-56
2021/05/29 00:56:31;;;;;;;;;;;;;;;;;;4926489;29;20048;-54
2021/05/29 00:58:58;;;;;;;39.70;18.77;;;;;;;;;;4924803;29;20013;-52
2021/05/29 01:01:25;;;;;;;43.05;20.10;;;;;;;;;;4926962;29;20072;-55
2021/05/29 01:03:52;;;;;;;50.17;19.85;;;;;;;;;;4927310;29;20410;-53
2021/05/29 01:06:18;;;;;;;40.80;19.95;;;;;;;;;;4925308;29;20036;-53
2021/05/29 01:08:45;;;;;;;44.17;21.57;;;;;;;;;;4928706;29;20043;-54
2021/05/29 01:11:12;;;;;;;46.05;21.73;;;;;;;;;;4928235;29;20048;-52
2021/05/29 01:13:39;;;;;;;43.58;21.73;;;;;;;;;;4910641;29;20103;-52
2021/05/29 01:16:15;;;;;;;46.27;22.67;;;;;;;;;;4928122;29;20182;-52
2021/05/29 01:18:42;;;;;;;41.53;21.70;;;;;;;;;;4926433;29;20052;-56
2021/05/29 01:21:09;;;;;;;56.27;22.93;;;;;;;;;;4927219;29;20528;-52
2021/05/29 01:23:35;;;;;;;50.57;24.57;;;;;;;;;;4924721;29;20296;-52
2021/05/29 01:26:02;;;;;;;54.85;25.00;;;;;;;;;;4911124;29;20048;-52
2021/05/29 01:28:31;;;;;;;57.83;25.52;;;;;;;;;;4927546;29;20103;-55
2021/05/29 01:31:02;;;;;;;60.50;24.77;;;;;;;;;;4928787;29;20054;-54
2021/05/29 01:33:31;;;;;;;58.95;24.33;;;;;;;;;;4925190;29;20441;-55
2021/05/29 01:36:00;;;;;;;52.53;23.83;;;;;;;;;;4924735;29;20048;-55
2021/05/29 01:38:26;;;;;;;40.78;21.90;;;;;;;;;;4921899;29;20105;-54
2021/05/29 01:40:58;;;;;;;50.38;22.08;;;;;;;;;;4929727;29;20396;-50
2021/05/29 01:43:24;;;;;;;47.05;23.05;;;;;;;;;;4926012;29;20048;-51
2021/05/29 01:45:51;;;;;;;43.40;21.55;;;;;;;;;;4927323;29;20044;-55
2021/05/29 01:48:19;;;;;;;45.58;21.90;;;;;;;;;;4927474;29;20123;-55
2021/05/29 01:50:46;;;;;;;48.83;22.55;;;;;;;;;;4925943;29;20506;-54
2021/05/29 01:53:17;;;;;;;47.00;21.02;;;;;;;;;;4924645;29;20516;-53
2021/05/29 01:55:44;;;;;;;50.70;22.42;;;;;;;;;;4927019;29;21032;-55
2021/05/29 01:58:11;;;;;;;41.83;20.92;;;;;;;;;;4926179;29;20035;-51
2021/05/29 02:00:38;;;;;;;37.10;21.08;;;;;;;;;;4932189;29;20064;-53
2021/05/29 02:03:05;;;;;;;43.67;22.33;;;;;;;;;;4925079;29;20051;-53
2021/05/29 02:05:33;;;;;;;36.90;18.33;;;;;;;;;;4926808;29;20043;-55
2021/05/29 02:08:01;;;;;;;42.60;21.77;;;;;;;;;;4932245;29;20044;-55
2021/05/29 02:10:29;;;;;;;45.00;21.02;;;;;;;;;;4927962;29;20088;-54
2021/05/29 02:12:56;;;;;;;43.88;22.17;;;;;;;;;;4925847;29;20103;-53
2021/05/29 02:15:23;;;;;;;;;;;;;;;;;;4927074;29;20043;-56
2021/05/29 02:17:52;;;;;;;55.80;22.10;;;;;;;;;;4928086;29;19923;-55
2021/05/29 02:20:27;;;;;;;52.92;21.25;;;;;;;;;;4928620;29;20049;-54
2021/05/29 02:22:54;;;;;;;48.60;22.08;;;;;;;;;;4924500;29;20051;-57
2021/05/29 02:25:20;;;;;;;43.97;20.15;;;;;;;;;;4922827;29;20080;-56
2021/05/29 02:27:47;;;;;;;30.80;18.67;;;;;;;;;;4923880;29;20040;-54
2021/05/29 02:30:14;;;;;;;42.33;21.37;;;;;;;;;;4924587;29;20635;-54
2021/05/29 02:32:40;;;;;;;42.27;20.77;;;;;;;;;;4928321;29;20079;-55
2021/05/29 02:35:08;;;;;;;40.35;19.98;;;;;;;;;;4926227;29;20044;-52
2021/05/29 02:37:35;;;;;;;;;;;;;;;;;;4921606;29;20072;-51
2021/05/29 02:40:02;;;;;;;41.63;19.10;;;;;;;;;;4922550;29;19922;-54
2021/05/29 02:42:29;;;;;;;33.33;19.55;;;;;;;;;;4925273;29;20052;-55
2021/05/29 02:44:56;;;;;;;35.30;19.53;;;;;;;;;;4928915;29;20593;-55
2021/05/29 02:47:24;;;;;;;43.83;19.08;;;;;;;;;;4925256;29;20060;-55
2021/05/29 02:49:51;;;;;;;37.95;20.15;;;;;;;;;;4929900;29;20064;-57
2021/05/29 02:52:18;;;;;;;34.13;19.10;;;;;;;;;;4920272;29;20060;-54
2021/05/29 02:54:45;;;;;;;40.75;18.92;;;;;;;;;;4927210;29;20288;-54
2021/05/29 02:57:12;;;;;;;32.35;17.83;;;;;;;;;;4926920;29;20460;-56
2021/05/29 02:59:39;;;;;;;42.03;20.38;;;;;;;;;;4929233;29;20504;-57
2021/05/29 03:02:07;;;;;;;35.22;19.17;;;;;;;;;;4929792;29;20547;-55
2021/05/29 03:04:34;;;;;;;32.03;17.77;;;;;;;;;;4925417;29;20464;-56
2021/05/29 03:07:02;;;;;;;32.90;17.65;;;;;;;;;;4923817;29;20048;-54
2021/05/29 03:09:29;;;;;;;33.17;18.55;;;;;;;;;;4927566;29;20036;-56
2021/05/29 03:11:55;;;;;;;33.03;16.98;;;;;;;;;;4923807;29;20048;-57
2021/05/29 03:14:23;;;;;;;33.88;17.35;;;;;;;;;;4926358;29;20472;-54
2021/05/29 03:16:49;;;;;;;28.65;16.65;;;;;;;;;;4928536;29;20070;-57
2021/05/29 03:19:18;;;;;;;33.88;17.52;;;;;;;;;;4930479;29;20051;-53
2021/05/29 03:21:45;;;;;;;32.25;16.05;;;;;;;;;;4922825;29;20108;-57
2021/05/29 03:24:12;;;;;;;29.15;16.05;;;;;;;;;;4923428;29;20048;-55
2021/05/29 03:26:38;;;;;;;27.55;15.43;;;;;;;;;;4922598;29;20036;-56
2021/05/29 03:29:06;;;;;;;29.10;14.85;;;;;;;;;;4930689;29;20596;-56
2021/05/29 03:31:33;;;;;;;26.33;14.63;;;;;;;;;;4921869;29;20040;-55
2021/05/29 03:33:59;;;;;;;33.50;15.02;;;;;;;;;;4922385;29;20067;-55
2021/05/29 03:36:26;;;;;;;26.20;15.27;;;;;;;;;;4909746;29;20118;-52
2021/05/29 03:38:53;;;;;;;29.55;15.82;;;;;;;;;;4924639;29;20036;-56
2021/05/29 03:41:20;;;;;;;27.88;15.57;;;;;;;;;;4923284;29;20040;-51
2021/05/29 03:43:48;;;;;;;23.20;14.13;;;;;;;;;;4922852;29;20054;-57
2021/05/29 03:46:15;;;;;;;37.10;15.83;;;;;;;;;;4923485;29;20045;-55
2021/05/29 03:48:42;;;;;;;34.70;15.80;;;;;;;;;;4926202;29;20044;-55
2021/05/29 03:51:09;;;;;;;32.63;15.93;;;;;;;;;;4922638;29;20397;-54
2021/05/29 03:53:36;;;;;;;32.28;15.65;;;;;;;;;;4922510;29;20091;-56
2021/05/29 03:56:02;;;;;;;33.73;16.67;;;;;;;;;;4925147;29;20497;-56
2021/05/29 03:58:31;;;;;;;31.48;16.27;;;;;;;;;;4924867;29;20046;-55
2021/05/29 04:00:58;;;;;;;31.63;15.27;;;;;;;;;;4927003;29;20567;-56
2021/05/29 04:03:25;;;;;;;27.90;14.18;;;;;;;;;;4926475;29;20043;-57
2021/05/29 04:05:52;;;;;;;31.67;15.13;;;;;;;;;;4925854;29;20043;-56
2021/05/29 04:08:19;;;;;;;27.98;15.27;;;;;;;;;;4925830;29;20127;-56
2021/05/29 04:10:47;;;;;;;31.33;15.97;;;;;;;;;;4929448;29;20146;-55
2021/05/29 04:13:15;;;;;;;34.70;15.73;;;;;;;;;;4924873;29;20052;-57
2021/05/29 04:15:42;;;;;;;27.60;14.27;;;;;;;;;;4927490;29;20537;-54
2021/05/29 04:18:08;;;;;;;32.33;15.37;;;;;;;;;;4927371;29;20048;-57
2021/05/29 04:20:35;;;;;;;33.13;16.98;;;;;;;;;;4930125;29;20047;-55
2021/05/29 04:23:02;;;;;;;26.33;13.70;;;;;;;;;;4926000;29;20554;-56
2021/05/29 04:25:29;;;;;;;20.85;13.75;;;;;;;;;;4920860;29;20044;-55
2021/05/29 04:27:58;;;;;;;30.60;14.43;;;;;;;;;;4928313;29;20044;-53
2021/05/29 04:30:25;;;;;;;30.63;14.32;;;;;;;;;;4927803;29;20562;-54
2021/05/29 04:32:52;;;;;;;;;;;;;;;;;;4928986;29;20054;-56
2021/05/29 04:35:19;;;;;;;20.60;12.10;;;;;;;;;;4924449;29;20002;-57
2021/05/29 04:37:47;;;;;;;19.90;12.50;;;;;;;;;;4934807;29;20055;-56
2021/05/29 04:40:14;;;;;;;21.90;13.23;;;;;;;;;;4924419;29;20100;-57
2021/05/29 04:42:41;;;;;;;25.92;12.45;;;;;;;;;;4926425;29;20063;-55
2021/05/29 04:45:08;;;;;;;;;;;;;;;;;;4935383;29;20468;-55
2021/05/29 04:47:35;;;;;;;20.80;11.85;;;;;;;;;;4922630;29;19942;-57
2021/05/29 04:50:03;;;;;;;21.57;11.50;;;;;;;;;;4930187;29;20527;-57
2021/05/29 04:52:29;;;;;;;;;;;;;;;;;;4926672;29;20295;-55
2021/05/29 04:54:56;;;;;;;21.05;12.25;;;;;;;;;;4926082;29;20442;-57
2021/05/29 04:57:23;;;;;;;21.20;11.48;;;;;;;;;;4923516;29;20041;-54
2021/05/29 04:59:50;;;;;;;19.52;10.60;;;;;;;;;;4927980;29;20131;-56
2021/05/29 05:02:16;;;;;;;18.93;11.03;;;;;;;;;;4925198;29;20054;-55
2021/05/29 05:04:43;;;;;;;19.38;10.93;;;;;;;;;;4927226;29;20036;-57
2021/05/29 05:07:10;;;;;;;24.02;12.20;;;;;;;;;;4924135;29;20044;-57
2021/05/29 05:09:37;;;;;;;21.33;10.90;;;;;;;;;;4927551;29;20050;-55
2021/05/29 05:12:04;;;;;;;22.43;12.30;;;;;;;;;;4929018;29;20046;-57
2021/05/29 05:14:30;;;;;;;18.00;10.80;;;;;;;;;;4923877;29;20296;-55
2021/05/29 05:16:57;;;;;;;22.73;12.32;;;;;;;;;;4926426;29;20052;-56
2021/05/29 05:19:24;;;;;;;20.13;11.82;;;;;;;;;;4925774;29;20080;-55
2021/05/29 05:21:51;;;;;;;20.80;11.48;;;;;;;;;;4927346;29;20058;-56
2021/05/29 05:24:17;;;;;;;19.67;10.50;;;;;;;;;;4926974;29;20511;-56
2021/05/29 05:26:44;;;;;;;21.30;10.33;;;;;;;;;;4925827;29;20131;-54
2021/05/29 05:29:11;;;;;;;17.75;10.02;;;;;;;;;;4923764;29;20833;-55
2021/05/29 05:31:39;;;;;;;16.33;10.20;;;;;;;;;;4922566;29;20043;-56
2021/05/29 05:34:08;;;;;;;18.52;10.70;;;;;;;;;;4928400;29;20792;-57
2021/05/29 05:36:36;;;;;;;18.25;10.98;;;;;;;;;;4914811;29;20504;-56
2021/05/29 05:39:05;;;;;;;19.17;10.27;;;;;;;;;;4926673;29;20043;-56
2021/05/29 05:41:32;;;;;;;16.40;10.10;;;;;;;;;;4926328;29;20044;-54
2021/05/29 05:43:58;;;;;;;17.05;10.85;;;;;;;;;;4923726;29;20046;-56
2021/05/29 05:46:25;;;;;;;17.67;10.60;;;;;;;;;;4927124;29;20040;-56
2021/05/29 05:48:52;;;;;;;13.68;10.52;;;;;;;;;;4927020;29;20118;-57
2021/05/29 05:51:20;;;;;;;18.90;10.85;;;;;;;;;;4933501;29;20051;-56
2021/05/29 05:53:46;;;;;;;;;;;;;;;;;;4924131;29;20508;-56
2021/05/29 05:56:16;;;;;;;21.80;10.25;;;;;;;;;;4927636;29;19934;-56
2021/05/29 05:58:43;;;;;;;17.55;10.15;;;;;;;;;;4928741;29;20532;-56
2021/05/29 06:01:09;;;;;;;12.85;9.20;;;;;;;;;;4923972;29;20062;-56
2021/05/29 06:03:37;;;;;;;19.30;10.05;;;;;;;;;;4932984;29;20083;-55
2021/05/29 06:06:04;;;;;;;17.77;9.13;;;;;;;;;;4928919;29;20061;-55
2021/05/29 06:08:31;;;;;;;16.42;10.68;;;;;;;;;;4924537;29;20250;-54
2021/05/29 06:10:58;;;;;;;17.80;9.75;;;;;;;;;;4926908;29;20063;-56
2021/05/29 06:17:57;;;;;;;18.33;10.70;;;;;;;;;;4928253;29;20091;-55
2021/05/29 06:19:17;;;;;;;16.02;8.23;;;;;;;;;;4926701;29;20074;-55
2021/05/29 06:21:49;;;;;;;20.55;9.95;;;;;;;;;;4922604;29;20099;-57
2021/05/29 06:24:17;;;;;;;16.08;9.50;;;;;;;;;;4921941;29;20047;-57
2021/05/29 06:26:45;;;;;;;19.23;9.02;;;;;;;;;;4908561;29;20051;-56
2021/05/29 06:29:11;;;;;;;17.08;8.15;;;;;;;;;;4922995;28;20050;-56
2021/05/29 06:31:38;;;;;;;14.90;9.02;;;;;;;;;;4929071;29;20055;-57
2021/05/29 06:34:05;;;;;;;15.20;8.95;;;;;;;;;;4924965;29;20044;-56
2021/05/29 06:36:32;;;;;;;18.27;9.45;;;;;;;;;;4924271;29;20059;-56
2021/05/29 06:38:59;;;;;;;13.07;8.00;;;;;;;;;;4924606;29;20059;-57
2021/05/29 06:41:26;;;;;;;15.63;7.72;;;;;;;;;;4926769;29;20052;-53
2021/05/29 06:43:53;;;;;;;13.13;8.13;;;;;;;;;;4912617;29;20089;-55
2021/05/29 06:46:20;;;;;;;12.63;7.65;;;;;;;;;;4928792;29;20048;-55
2021/05/29 06:48:48;;;;;;;11.98;7.13;;;;;;;;;;4930479;29;20519;-55
2021/05/29 06:51:20;;;;;;;13.30;7.20;;;;;;;;;;4924834;29;20484;-55
2021/05/29 06:53:49;;;;;;;14.43;7.18;;;;;;;;;;4920827;29;20115;-56
2021/05/29 06:59:03;;;;;;;13.00;7.53;;;;;;;;;;4919936;29;20511;-55
2021/05/29 07:01:30;;;;;;;13.38;6.75;;;;;;;;;;4907629;29;20048;-56
2021/05/29 07:03:57;;;;;;;13.82;7.32;;;;;;;;;;4923014;29;20544;-55
2021/05/29 07:06:24;;;;;;;11.33;6.67;;;;;;;;;;4923070;29;20412;-56
2021/05/29 07:08:51;;;;;;;10.70;6.50;;;;;;;;;;4906323;29;20786;-56
2021/05/29 07:11:18;;;;;;;9.32;5.38;;;;;;;;;;4912008;29;20059;-56
2021/05/29 07:13:46;;;;;;;10.63;5.57;;;;;;;;;;4921812;29;20048;-55
2021/05/29 07:16:13;;;;;;;9.02;5.30;;;;;;;;;;4922046;29;20060;-55
2021/05/29 07:18:45;;;;;;;13.15;5.63;;;;;;;;;;4925364;29;20071;-55
2021/05/29 07:21:12;;;;;;;8.30;4.50;;;;;;;;;;4922362;29;20052;-54
2021/05/29 07:23:39;;;;;;;9.32;4.55;;;;;;;;;;4927416;29;20040;-54
2021/05/29 07:26:06;;;;;;;10.38;4.95;;;;;;;;;;4921444;29;20052;-55
2021/05/29 07:28:33;;;;;;;8.68;4.45;;;;;;;;;;4921402;29;20050;-56
2021/05/29 07:31:00;;;;;;;13.27;5.03;;;;;;;;;;4923629;29;20051;-52
2021/05/29 07:33:27;;;;;;;7.18;4.68;;;;;;;;;;4924239;29;20047;-51
2021/05/29 07:35:53;;;;;;;7.57;4.47;;;;;;;;;;4921832;29;20051;-51
2021/05/29 07:38:22;;;;;;;9.10;4.53;;;;;;;;;;4924581;29;20574;-53
2021/05/29 07:40:48;;;;;;;9.50;5.10;;;;;;;;;;4925538;29;20047;-52
2021/05/29 07:43:15;;;;;;;9.77;4.93;;;;;;;;;;4926317;29;20126;-55
2021/05/29 07:45:42;;;;;;;6.43;4.15;;;;;;;;;;4927269;29;20040;-56
2021/05/29 07:48:09;;;;;;;8.73;4.63;;;;;;;;;;4922093;29;20206;-56
2021/05/29 07:50:56;;;;;;;10.50;4.68;;;;;;;;;;4926308;29;20047;-55
2021/05/29 07:53:25;;;;;;;10.60;4.40;;;;;;;;;;4926168;29;20125;-57
2021/05/29 07:55:51;;;;;;;8.80;4.30;;;;;;;;;;4925575;29;20052;-57
2021/05/29 07:58:18;;;;;;;7.70;3.72;;;;;;;;;;4920900;29;20062;-56
2021/05/29 08:00:50;;;;;;;7.57;3.38;;;;;;;;;;4919462;29;20151;-56
2021/05/29 08:03:22;;;;;;;8.43;3.83;;;;;;;;;;4924607;29;20071;-57
2021/05/29 08:05:51;;;;;;;6.60;3.70;;;;;;;;;;4923908;29;20048;-55
2021/05/29 08:08:24;;;;;;;6.65;3.35;;;;;;;;;;4919515;29;20091;-57
2021/05/29 08:10:52;;;;;;;5.05;3.22;;;;;;;;;;4927958;29;20567;-57
2021/05/29 08:13:19;;;;;;;8.10;3.60;;;;;;;;;;4924675;29;20071;-56
2021/05/29 08:15:48;;;;;;;6.45;3.25;;;;;;;;;;4918822;29;20094;-55
2021/05/29 08:18:16;;;;;;;;;;;;;;;;;;4920395;29;20047;-56
2021/05/29 08:20:45;;;;;;;5.03;3.15;;;;;;;;;;4921330;29;19930;-56
2021/05/29 08:23:11;;;;;;;8.10;3.25;;;;;;;;;;4921633;29;20052;-56
2021/05/29 08:25:38;;;;;;;8.63;3.30;;;;;;;;;;4921182;29;20107;-58
2021/05/29 08:28:05;;;;;;;9.82;3.03;;;;;;;;;;4926520;29;20048;-56
2021/05/29 08:30:31;;;;;;;5.07;3.05;;;;;;;;;;4927750;29;20040;-58
2021/05/29 08:32:59;;;;;;;5.38;3.10;;;;;;;;;;4923653;29;20064;-55
2021/05/29 08:35:25;;;;;;;7.47;3.25;;;;;;;;;;4925824;29;20606;-56
2021/05/29 08:37:52;;;;;;;6.47;3.50;;;;;;;;;;4925674;29;20056;-56
2021/05/29 08:40:20;;;;;;;8.95;2.72;;;;;;;;;;4926885;29;20050;-58
2021/05/29 08:42:47;;;;;;;5.03;2.67;;;;;;;;;;4926279;29;20125;-58
2021/05/29 08:45:15;;;;;;;7.40;3.00;;;;;;;;;;4929430;29;20044;-58
2021/05/29 08:47:42;;;;;;;6.28;2.70;;;;;;;;;;4926223;29;20048;-58
2021/05/29 08:50:09;;;;;;;5.20;2.93;;;;;;;;;;4924857;29;20044;-56
2021/05/29 08:52:36;;;;;;;4.40;2.53;;;;;;;;;;4924834;29;20075;-58
2021/05/29 08:55:04;;;;;;;;;;;;;;;;;;4924872;29;20041;-57
2021/05/29 08:57:30;;;;;;;5.45;2.45;;;;;;;;;;4926239;29;19970;-58
2021/05/29 08:59:59;;;;;;;4.77;2.33;;;;;;;;;;4923677;29;20063;-58
2021/05/29 09:02:27;;;;;;;4.63;2.40;;;;;;;;;;4925205;29;20052;-57
2021/05/29 09:04:54;;;;;;;;;;;;;;;;;;4927256;29;20047;-57
2021/05/29 09:07:25;;;;;;;6.68;2.40;;;;;;;;;;4924538;29;20387;-58
2021/05/29 09:10:12;;;;;;;4.25;2.50;;;;;;;;;;4925885;29;20059;-58
2021/05/29 09:12:57;;;;;;;7.75;2.75;;;;;;;;;;4926062;29;20056;-56
2021/05/29 09:15:38;;;;;;;7.70;2.40;;;;;;;;;;4934762;29;20571;-57
2021/05/29 09:18:04;;;;;;;4.90;2.63;;;;;;;;;;4929781;29;20120;-57
2021/05/29 09:20:32;;;;;;;6.10;2.60;;;;;;;;;;4927949;29;20053;-58
2021/05/29 09:22:59;;;;;;;4.28;2.50;;;;;;;;;;4928056;29;20043;-58
2021/05/29 09:25:26;;;;;;;6.47;2.70;;;;;;;;;;4932819;29;20050;-58
2021/05/29 09:27:58;;;;;;;7.25;2.75;;;;;;;;;;4922641;29;20040;-58
2021/05/29 09:30:35;;;;;;;8.07;2.65;;;;;;;;;;4932543;29;20048;-58
2021/05/29 09:33:16;;;;;;;5.80;2.38;;;;;;;;;;4927483;29;20301;-56
2021/05/29 09:36:09;;;;;;;5.15;2.25;;;;;;;;;;4929193;29;20039;-57
2021/05/29 09:38:37;;;;;;;5.80;2.78;;;;;;;;;;4922876;29;20055;-58
2021/05/29 09:41:04;;;;;;;6.90;2.42;;;;;;;;;;4923773;29;20075;-59
2021/05/29 09:43:50;;;;;;;5.28;2.97;;;;;;;;;;4921309;29;20068;-57
2021/05/29 09:46:17;;;;;;;6.45;2.50;;;;;;;;;;4930005;29;20048;-58
2021/05/29 09:48:52;;;;;;;4.20;2.45;;;;;;;;;;4930187;29;20150;-59
2021/05/29 09:51:20;;;;;;;3.53;2.17;;;;;;;;;;4923283;29;20595;-58
2021/05/29 09:53:48;;;;;;;4.88;2.50;;;;;;;;;;4928277;29;20131;-58
2021/05/29 09:56:42;;;;;;;3.80;2.58;;;;;;;;;;4922775;29;20063;-57
2021/05/29 09:59:10;;;;;;;7.07;2.67;;;;;;;;;;4925659;29;20063;-56
2021/05/29 10:01:36;;;;;;;7.97;2.28;;;;;;;;;;4931110;29;20048;-58
2021/05/29 10:04:04;;;;;;;4.28;2.60;;;;;;;;;;4925233;29;20042;-58
2021/05/29 10:06:32;;;;;;;5.60;2.47;;;;;;;;;;4922962;29;20051;-58
2021/05/29 10:08:59;;;;;;;7.03;2.75;;;;;;;;;;4926303;29;20043;-58
2021/05/29 10:11:27;;;;;;;3.08;2.30;;;;;;;;;;4926963;29;20130;-58
2021/05/29 10:13:54;;;;;;;5.65;2.38;;;;;;;;;;4928603;29;20142;-58
2021/05/29 10:16:21;;;;;;;7.50;2.30;;;;;;;;;;4923505;29;20248;-57
2021/05/29 10:18:49;;;;;;;7.70;2.60;;;;;;;;;;4911964;29;20472;-58
2021/05/29 10:21:18;;;;;;;3.53;2.33;;;;;;;;;;4921047;29;20048;-58
2021/05/29 10:23:45;;;;;;;4.60;3.13;;;;;;;;;;4923791;29;20110;-56
2021/05/29 10:26:16;;;;;;;3.13;2.28;;;;;;;;;;4924041;29;20063;-59
2021/05/29 10:28:44;;;;;;;6.00;2.30;;;;;;;;;;4927839;29;20056;-58
2021/05/29 10:31:11;;;;;;;4.07;2.35;;;;;;;;;;4925431;29;20520;-57
2021/05/29 10:33:42;;;;;;;4.82;2.65;;;;;;;;;;4928062;29;20103;-58
2021/05/29 10:36:28;;;;;;;4.55;2.45;;;;;;;;;;4929265;29;20047;-59
2021/05/29 10:38:55;;;;;;;4.43;2.30;;;;;;;;;;4926640;29;20091;-58
2021/05/29 10:41:41;;;;;;;8.43;2.28;;;;;;;;;;4928082;29;20047;-58
2021/05/29 10:44:26;;;;;;;3.85;2.17;;;;;;;;;;4927510;29;20115;-54
2021/05/29 10:47:08;;;;;;;4.05;2.10;;;;;;;;;;4927444;29;20052;-59
2021/05/29 10:49:52;;;;;;;7.22;2.60;;;;;;;;;;4923382;29;20055;-57
2021/05/29 10:52:36;;;;;;;5.63;2.33;;;;;;;;;;4928078;29;20519;-58
2021/05/29 10:55:10;;;;;;;4.32;2.53;;;;;;;;;;4925254;29;20139;-57
2021/05/29 10:57:56;;;;;;;5.00;2.67;;;;;;;;;;4927164;29;20058;-58
2021/05/29 11:00:35;;;;;;;6.32;2.55;;;;;;;;;;4921453;29;20075;-58
2021/05/29 11:03:18;;;;;;;5.88;2.55;;;;;;;;;;4922312;29;20044;-58
2021/05/29 11:05:55;;;;;;;8.38;2.80;;;;;;;;;;4923823;29;20471;-58
2021/05/29 11:08:41;;;;;;;3.55;2.35;;;;;;;;;;4921783;29;20122;-53
2021/05/29 11:11:27;;;;;;;5.05;2.80;;;;;;;;;;4905541;29;20091;-57
2021/05/29 11:14:04;;;;;;;4.80;2.22;;;;;;;;;;4922397;29;20051;-58
2021/05/29 11:16:46;;;;;;;3.67;2.17;;;;;;;;;;4921159;29;20067;-57
2021/05/29 11:19:16;;;;;;;10.18;2.60;;;;;;;;;;4921960;29;20047;-58
2021/05/29 11:22:06;;;;;;;5.25;2.60;;;;;;;;;;4909883;29;20035;-56
2021/05/29 11:24:33;;;;;;;3.38;2.22;;;;;;;;;;4926265;29;20047;-55
2021/05/29 11:27:00;;;;;;;4.88;2.40;;;;;;;;;;4927712;29;20056;-57
2021/05/29 11:29:27;;;;;;;3.55;2.13;;;;;;;;;;4922456;29;20051;-57
2021/05/29 11:31:54;;;;;;;4.60;2.40;;;;;;;;;;4926427;29;20036;-58
2021/05/29 11:34:21;;;;;;;6.28;2.50;;;;;;;;;;4927375;29;20066;-57
2021/05/29 11:36:47;;;;;;;8.40;3.05;;;;;;;;;;4921816;29;20036;-58
2021/05/29 11:39:19;;;;;;;5.60;2.33;;;;;;;;;;4924404;29;20119;-58
2021/05/29 11:41:46;;;;;;;3.63;2.17;;;;;;;;;;4925121;29;20118;-55
2021/05/29 11:44:20;;;;;;;5.25;2.60;;;;;;;;;;4928881;29;20044;-57
2021/05/29 11:46:47;;;;;;;5.30;2.25;;;;;;;;;;4926072;29;20056;-58
2021/05/29 11:49:14;;;;;;;3.90;2.25;;;;;;;;;;4922790;29;20659;-56
2021/05/29 11:51:43;;;;;;;6.70;2.38;;;;;;;;;;4927330;29;20044;-54
2021/05/29 11:54:17;;;;;;;7.05;2.70;;;;;;;;;;4920187;29;20062;-56
2021/05/29 11:56:46;;;;;;;6.55;2.53;;;;;;;;;;4928244;29;20063;-57
2021/05/29 11:59:15;;;;;;;5.63;2.53;;;;;;;;;;4923376;29;20087;-57
2021/05/29 12:01:43;;;;;;;;;;;;;;;;;;4921903;29;20079;-57
2021/05/29 12:04:11;;;;;;;5.20;2.08;;;;;;;;;;4920814;29;19934;-57
2021/05/29 12:06:40;;;;;;;4.68;2.40;;;;;;;;;;4921826;29;20041;-57
2021/05/29 12:09:08;;;;;;;5.88;2.75;;;;;;;;;;4920998;29;20678;-58
2021/05/29 12:11:36;;;;;;;6.10;2.60;;;;;;;;;;4923092;29;20042;-57
2021/05/29 12:14:02;;;;;;;;;;;;;;;;;;4923767;29;20048;-57
2021/05/29 12:16:30;;;;;;;4.20;2.33;;;;;;;;;;4924283;29;19927;-57
2021/05/29 12:18:58;;;;;;;7.20;2.65;;;;;;;;;;4927732;29;20043;-57
2021/05/29 12:21:39;;;;;;;4.63;2.20;;;;;;;;;;4924813;29;20060;-56
2021/05/29 12:24:06;;;;;;;6.05;2.50;;;;;;;;;;4925735;29;20058;-57
2021/05/29 12:26:33;;;;;;;5.78;2.47;;;;;;;;;;4924009;29;20058;-57
2021/05/29 12:29:02;;;;;;;7.57;2.45;;;;;;;;;;4923762;29;20051;-57
2021/05/29 12:31:47;;;;;;;7.22;2.30;;;;;;;;;;4925393;29;20052;-57
2021/05/29 12:34:15;;;;;;;3.75;2.42;;;;;;;;;;4926436;29;20044;-58
2021/05/29 12:37:01;;;;;;;4.10;2.47;;;;;;;;;;4928212;29;20047;-58
2021/05/29 12:39:42;;;;;;;4.13;2.60;;;;;;;;;;4923826;29;20040;-57
2021/05/29 12:42:20;;;;;;;4.28;2.55;;;;;;;;;;4924899;29;20043;-58
2021/05/29 12:44:48;;;;;;;3.60;2.40;;;;;;;;;;4926352;29;20484;-58
2021/05/29 12:47:28;;;;;;;5.50;2.38;;;;;;;;;;4929246;29;20042;-58
2021/05/29 12:49:57;;;;;;;2.38;1.90;;;;;;;;;;4925901;29;20044;-56
2021/05/29 12:52:33;;;;;;;2.95;2.40;;;;;;;;;;4928704;29;20044;-57
2021/05/29 12:55:01;;;;;;;2.25;1.83;;;;;;;;;;4929890;29;20496;-58
2021/05/29 12:57:35;;;;;;;5.55;2.15;;;;;;;;;;4930095;29;20070;-57
2021/05/29 13:00:23;;;;;;;6.88;2.42;;;;;;;;;;4928900;29;20071;-55
2021/05/29 13:11:09;;;;;;;5.32;2.55;;;;;;;;;;4930622;29;20150;-57
2021/05/29 13:14:05;;;;;;;5.87;2.30;;;;;;;;;;4925861;29;20044;-60
2021/05/29 13:16:47;;;;;;;3.80;2.30;;;;;;;;;;4916121;29;20051;-57
2021/05/29 13:19:13;;;;;;;3.13;2.28;;;;;;;;;;4929021;29;20095;-55
2021/05/29 13:21:41;;;;;;;;;;;;;;;;;;4930838;29;20122;-58
2021/05/29 13:24:07;;;;;;;3.13;2.28;;;;;;;;;;4929751;29;19927;-56
2021/05/29 13:26:34;;;;;;;2.63;1.92;;;;;;;;;;4929881;29;20048;-56
2021/05/29 13:29:04;;;;;;;2.78;2.17;;;;;;;;;;4925708;29;20083;-58
2021/05/29 13:31:32;;;;;;;2.05;1.88;;;;;;;;;;4925863;29;20067;-57
2021/05/29 13:33:59;;;;;;;4.18;2.17;;;;;;;;;;4932023;29;20086;-58
2021/05/29 13:36:26;;;;;;;3.20;1.95;;;;;;;;;;4927129;29;20095;-56
2021/05/29 13:38:52;;;;;;;3.90;2.05;;;;;;;;;;4924366;29;20404;-57
2021/05/29 13:41:19;;;;;;;4.27;2.00;;;;;;;;;;4929395;29;20784;-59
2021/05/29 13:43:46;;;;;;;3.85;1.77;;;;;;;;;;4930971;29;20671;-58
2021/05/29 13:46:13;;;;;;;2.73;1.90;;;;;;;;;;4924942;29;20354;-58
2021/05/29 13:48:40;;;;;;;3.10;1.52;;;;;;;;;;4924097;29;20307;-58
2021/05/29 13:51:07;;;;;;;2.38;1.80;;;;;;;;;;4929973;29;20071;-57
2021/05/29 13:53:33;;;;;;;3.35;1.60;;;;;;;;;;4924022;29;20054;-56
2021/05/29 13:56:00;;;;;;;2.63;1.88;;;;;;;;;;4926588;29;20047;-57
2021/05/29 13:58:28;;;;;;;4.28;2.03;;;;;;;;;;4924487;29;20054;-57
2021/05/29 14:00:54;;;;;;;3.40;2.13;;;;;;;;;;4924655;29;20056;-58
2021/05/29 14:03:21;;;;;;;1.60;1.50;;;;;;;;;;4914003;29;20043;-56
2021/05/29 14:05:50;;;;;;;4.18;1.88;;;;;;;;;;4924434;29;20406;-55
2021/05/29 14:08:16;;;;;;;3.87;1.70;;;;;;;;;;4924598;29;20461;-56
2021/05/29 14:10:43;;;;;;;6.57;2.37;;;;;;;;;;4921183;29;20291;-56
2021/05/29 14:13:11;;;;;;;3.33;2.10;;;;;;;;;;4927637;29;20048;-56
2021/05/29 14:15:37;;;;;;;2.50;1.88;;;;;;;;;;4927462;29;20432;-55
2021/05/29 14:18:04;;;;;;;2.22;1.98;;;;;;;;;;4924489;29;20127;-55
2021/05/29 14:20:31;;;;;;;3.92;1.90;;;;;;;;;;4924016;29;20052;-57
2021/05/29 14:22:58;;;;;;;3.40;2.10;;;;;;;;;;4928099;29;20047;-56
2021/05/29 14:25:25;;;;;;;2.15;1.80;;;;;;;;;;4926087;29;20288;-55
2021/05/29 14:27:52;;;;;;;2.35;2.00;;;;;;;;;;4927744;29;20488;-57
2021/05/29 14:30:19;;;;;;;3.45;2.17;;;;;;;;;;4927500;29;20044;-56
2021/05/29 14:32:45;;;;;;;4.28;1.92;;;;;;;;;;4924341;29;20496;-57
2021/05/29 14:35:14;;;;;;;4.10;1.98;;;;;;;;;;4929693;29;20039;-57
2021/05/29 14:37:41;;;;;;;3.13;2.10;;;;;;;;;;4925119;29;20686;-56
2021/05/29 14:40:08;;;;;;;8.52;2.42;;;;;;;;;;4928405;29;20044;-55
2021/05/29 14:42:36;;;;;;;3.08;1.83;;;;;;;;;;4926482;29;20042;-57
2021/05/29 14:45:04;;;;;;;2.40;2.20;;;;;;;;;;4929705;29;20122;-56
2021/05/29 14:47:30;;;;;;;3.53;2.25;;;;;;;;;;4924916;29;20083;-56
2021/05/29 14:49:58;;;;;;;2.85;2.38;;;;;;;;;;4923351;29;20493;-57
2021/05/29 14:52:27;;;;;;;4.53;2.20;;;;;;;;;;4923692;29;20401;-56
2021/05/29 14:54:54;;;;;;;2.65;2.13;;;;;;;;;;4926894;29;20047;-53
2021/05/29 14:57:21;;;;;;;2.83;2.15;;;;;;;;;;4924577;29;20048;-57
2021/05/29 14:59:47;;;;;;;2.50;2.30;;;;;;;;;;4928187;29;20138;-57